sensor_id;sensor_type;location;lat;lon;timestamp;P1;durP1;ratioP1;P2;durP2;ratioP2
32228;SDS011;18717;48.034;11.186;2024-03-02T00:01:43;39.22;;;16.55;;
32228;SDS011;18717;48.034;11.186;2024-03-02T00:04:11;22.98;;;15.80;;
32228;SDS011;18717;48.034;11.186;2024-03-02T00:06:39;43.80;;;15.63;;
32228;SDS011;18717;48.034;11.186;2024-03-02T00:09:07;22.48;;;15.20;;
32228;SDS011;18717;48.034;11.186;2024-03-02T00:11:39;20.88;;;15.40;;
32228;SDS011;18717;48.034;11.186;2024-03-02T00:14:06;20.08;;;16.35;;
32228;SDS011;18717;48.034;11.186;2024-03-02T00:16:34;20.60;;;16.73;;
32228;SDS011;18717;48.034;11.186;2024-03-02T00:21:55;17.55;;;15.45;;
32228;SDS011;18717;48.034;11.186;2024-03-02T00:24:24;17.73;;;14.43;;
32228;SDS011;18717;48.034;11.186;2024-03-02T00:26:59;15.80;;;14.13;;
32228;SDS011;18717;48.034;11.186;2024-03-02T00:29:26;15.88;;;14.02;;
32228;SDS011;18717;48.034;11.186;2024-03-02T00:31:55;15.23;;;13.18;;
32228;SDS011;18717;48.034;11.186;2024-03-02T00:34:23;15.40;;;13.43;;
32228;SDS011;18717;48.034;11.186;2024-03-02T00:36:51;15.68;;;13.73;;
32228;SDS011;18717;48.034;11.186;2024-03-02T00:39:19;15.45;;;13.93;;
32228;SDS011;18717;48.034;11.186;2024-03-02T00:41:52;17.50;;;13.93;;
32228;SDS011;18717;48.034;11.186;2024-03-02T00:44:25;14.25;;;12.75;;
32228;SDS011;18717;48.034;11.186;2024-03-02T00:46:53;14.43;;;13.02;;
32228;SDS011;18717;48.034;11.186;2024-03-02T00:49:21;16.45;;;14.18;;
32228;SDS011;18717;48.034;11.186;2024-03-02T00:51:50;16.33;;;13.73;;
32228;SDS011;18717;48.034;11.186;2024-03-02T00:54:19;16.08;;;14.25;;
32228;SDS011;18717;48.034;11.186;2024-03-02T00:56:50;14.88;;;13.30;;
32228;SDS011;18717;48.034;11.186;2024-03-02T00:59:18;15.85;;;14.30;;
32228;SDS011;18717;48.034;11.186;2024-03-02T01:01:47;15.05;;;13.18;;
32228;SDS011;18717;48.034;11.186;2024-03-02T01:04:15;14.15;;;12.80;;
32228;SDS011;18717;48.034;11.186;2024-03-02T01:06:43;16.13;;;13.52;;
32228;SDS011;18717;48.034;11.186;2024-03-02T01:09:12;15.52;;;14.02;;
32228;SDS011;18717;48.034;11.186;2024-03-02T01:11:40;16.00;;;14.32;;
32228;SDS011;18717;48.034;11.186;2024-03-02T01:14:07;14.73;;;13.20;;
32228;SDS011;18717;48.034;11.186;2024-03-02T01:16:35;15.18;;;13.68;;
32228;SDS011;18717;48.034;11.186;2024-03-02T01:19:04;14.75;;;13.35;;
32228;SDS011;18717;48.034;11.186;2024-03-02T01:21:32;14.45;;;12.93;;
32228;SDS011;18717;48.034;11.186;2024-03-02T01:24:00;15.82;;;14.18;;
32228;SDS011;18717;48.034;11.186;2024-03-02T01:26:28;14.77;;;13.35;;
32228;SDS011;18717;48.034;11.186;2024-03-02T01:28:57;14.60;;;13.00;;
32228;SDS011;18717;48.034;11.186;2024-03-02T01:31:24;14.20;;;12.80;;
32228;SDS011;18717;48.034;11.186;2024-03-02T01:33:53;15.27;;;13.65;;
32228;SDS011;18717;48.034;11.186;2024-03-02T01:36:22;14.90;;;13.35;;
32228;SDS011;18717;48.034;11.186;2024-03-02T01:38:50;15.02;;;13.40;;
32228;SDS011;18717;48.034;11.186;2024-03-02T01:41:18;17.17;;;13.77;;
32228;SDS011;18717;48.034;11.186;2024-03-02T01:43:45;15.68;;;13.98;;
32228;SDS011;18717;48.034;11.186;2024-03-02T01:46:13;16.20;;;13.82;;
32228;SDS011;18717;48.034;11.186;2024-03-02T01:48:41;15.73;;;13.73;;
32228;SDS011;18717;48.034;11.186;2024-03-02T01:51:09;16.13;;;14.50;;
32228;SDS011;18717;48.034;11.186;2024-03-02T01:53:38;16.05;;;14.35;;
32228;SDS011;18717;48.034;11.186;2024-03-02T01:56:06;16.38;;;14.65;;
32228;SDS011;18717;48.034;11.186;2024-03-02T01:58:34;16.52;;;14.48;;
32228;SDS011;18717;48.034;11.186;2024-03-02T02:01:02;15.93;;;14.30;;
32228;SDS011;18717;48.034;11.186;2024-03-02T02:03:30;15.65;;;14.10;;
32228;SDS011;18717;48.034;11.186;2024-03-02T02:05:58;16.10;;;14.50;;
32228;SDS011;18717;48.034;11.186;2024-03-02T02:08:26;18.35;;;14.45;;
32228;SDS011;18717;48.034;11.186;2024-03-02T02:10:55;16.10;;;14.38;;
32228;SDS011;18717;48.034;11.186;2024-03-02T02:13:23;16.13;;;14.23;;
32228;SDS011;18717;48.034;11.186;2024-03-02T02:15:51;15.07;;;13.68;;
32228;SDS011;18717;48.034;11.186;2024-03-02T02:18:19;19.15;;;15.95;;
32228;SDS011;18717;48.034;11.186;2024-03-02T02:20:47;15.75;;;14.13;;
32228;SDS011;18717;48.034;11.186;2024-03-02T02:23:16;15.15;;;13.60;;
32228;SDS011;18717;48.034;11.186;2024-03-02T02:25:44;16.70;;;14.93;;
32228;SDS011;18717;48.034;11.186;2024-03-02T02:28:12;15.60;;;13.90;;
32228;SDS011;18717;48.034;11.186;2024-03-02T02:30:40;15.57;;;13.88;;
32228;SDS011;18717;48.034;11.186;2024-03-02T02:33:09;14.80;;;13.30;;
32228;SDS011;18717;48.034;11.186;2024-03-02T02:35:37;14.60;;;13.20;;
32228;SDS011;18717;48.034;11.186;2024-03-02T02:38:04;16.17;;;14.15;;
32228;SDS011;18717;48.034;11.186;2024-03-02T02:40:34;15.02;;;13.25;;
32228;SDS011;18717;48.034;11.186;2024-03-02T02:43:02;15.57;;;14.07;;
32228;SDS011;18717;48.034;11.186;2024-03-02T02:45:30;27.08;;;14.70;;
32228;SDS011;18717;48.034;11.186;2024-03-02T02:47:57;16.45;;;14.43;;
32228;SDS011;18717;48.034;11.186;2024-03-02T02:50:27;15.90;;;14.00;;
32228;SDS011;18717;48.034;11.186;2024-03-02T02:52:55;18.55;;;15.13;;
32228;SDS011;18717;48.034;11.186;2024-03-02T02:55:23;21.13;;;15.25;;
32228;SDS011;18717;48.034;11.186;2024-03-02T02:57:52;19.17;;;14.23;;
32228;SDS011;18717;48.034;11.186;2024-03-02T03:00:20;18.42;;;14.90;;
32228;SDS011;18717;48.034;11.186;2024-03-02T03:02:49;16.33;;;14.73;;
32228;SDS011;18717;48.034;11.186;2024-03-02T03:05:17;16.00;;;14.30;;
32228;SDS011;18717;48.034;11.186;2024-03-02T03:07:45;16.00;;;14.32;;
32228;SDS011;18717;48.034;11.186;2024-03-02T03:10:16;16.08;;;14.48;;
32228;SDS011;18717;48.034;11.186;2024-03-02T03:12:44;16.60;;;14.05;;
32228;SDS011;18717;48.034;11.186;2024-03-02T03:15:14;15.15;;;13.55;;
32228;SDS011;18717;48.034;11.186;2024-03-02T03:17:46;17.25;;;14.88;;
32228;SDS011;18717;48.034;11.186;2024-03-02T03:20:14;17.07;;;15.40;;
32228;SDS011;18717;48.034;11.186;2024-03-02T03:22:42;17.77;;;15.57;;
32228;SDS011;18717;48.034;11.186;2024-03-02T03:25:10;16.38;;;14.27;;
32228;SDS011;18717;48.034;11.186;2024-03-02T03:27:38;15.60;;;14.00;;
32228;SDS011;18717;48.034;11.186;2024-03-02T03:30:06;15.98;;;14.18;;
32228;SDS011;18717;48.034;11.186;2024-03-02T03:32:36;17.00;;;15.07;;
32228;SDS011;18717;48.034;11.186;2024-03-02T03:35:04;17.38;;;15.27;;
32228;SDS011;18717;48.034;11.186;2024-03-02T03:37:32;21.77;;;16.55;;
32228;SDS011;18717;48.034;11.186;2024-03-02T03:40:01;20.33;;;15.73;;
32228;SDS011;18717;48.034;11.186;2024-03-02T03:42:33;23.95;;;14.85;;
32228;SDS011;18717;48.034;11.186;2024-03-02T03:45:01;19.45;;;15.68;;
32228;SDS011;18717;48.034;11.186;2024-03-02T03:47:30;19.67;;;15.73;;
32228;SDS011;18717;48.034;11.186;2024-03-02T03:50:00;19.77;;;16.35;;
32228;SDS011;18717;48.034;11.186;2024-03-02T03:52:29;20.77;;;16.15;;
32228;SDS011;18717;48.034;11.186;2024-03-02T03:54:57;17.13;;;15.27;;
32228;SDS011;18717;48.034;11.186;2024-03-02T03:57:25;20.20;;;15.52;;
32228;SDS011;18717;48.034;11.186;2024-03-02T03:59:53;17.55;;;15.02;;
32228;SDS011;18717;48.034;11.186;2024-03-02T04:02:21;18.77;;;15.52;;
32228;SDS011;18717;48.034;11.186;2024-03-02T04:04:48;20.48;;;16.50;;
32228;SDS011;18717;48.034;11.186;2024-03-02T04:07:17;20.42;;;16.42;;
32228;SDS011;18717;48.034;11.186;2024-03-02T04:09:45;19.77;;;16.80;;
32228;SDS011;18717;48.034;11.186;2024-03-02T04:12:13;17.90;;;15.38;;
32228;SDS011;18717;48.034;11.186;2024-03-02T04:14:41;19.50;;;16.15;;
32228;SDS011;18717;48.034;11.186;2024-03-02T04:17:09;19.38;;;15.77;;
32228;SDS011;18717;48.034;11.186;2024-03-02T04:19:37;17.17;;;14.90;;
32228;SDS011;18717;48.034;11.186;2024-03-02T04:22:05;17.17;;;14.85;;
32228;SDS011;18717;48.034;11.186;2024-03-02T04:24:47;18.70;;;15.07;;
32228;SDS011;18717;48.034;11.186;2024-03-02T04:27:15;17.13;;;15.32;;
32228;SDS011;18717;48.034;11.186;2024-03-02T04:29:43;17.77;;;15.10;;
32228;SDS011;18717;48.034;11.186;2024-03-02T04:32:10;20.25;;;16.00;;
32228;SDS011;18717;48.034;11.186;2024-03-02T04:34:38;16.38;;;14.68;;
32228;SDS011;18717;48.034;11.186;2024-03-02T04:37:06;19.20;;;16.88;;
32228;SDS011;18717;48.034;11.186;2024-03-02T04:39:34;22.08;;;15.55;;
32228;SDS011;18717;48.034;11.186;2024-03-02T04:42:04;18.02;;;15.13;;
32228;SDS011;18717;48.034;11.186;2024-03-02T04:44:31;19.80;;;15.80;;
32228;SDS011;18717;48.034;11.186;2024-03-02T04:46:59;18.60;;;14.90;;
32228;SDS011;18717;48.034;11.186;2024-03-02T04:49:27;20.42;;;16.50;;
32228;SDS011;18717;48.034;11.186;2024-03-02T04:51:55;17.85;;;14.98;;
32228;SDS011;18717;48.034;11.186;2024-03-02T04:54:23;16.77;;;14.48;;
32228;SDS011;18717;48.034;11.186;2024-03-02T04:56:51;16.60;;;14.90;;
32228;SDS011;18717;48.034;11.186;2024-03-02T04:59:20;15.63;;;14.13;;
32228;SDS011;18717;48.034;11.186;2024-03-02T05:01:48;16.50;;;14.38;;
32228;SDS011;18717;48.034;11.186;2024-03-02T05:04:15;16.70;;;14.10;;
32228;SDS011;18717;48.034;11.186;2024-03-02T05:06:44;23.33;;;15.00;;
32228;SDS011;18717;48.034;11.186;2024-03-02T05:09:18;16.83;;;14.60;;
32228;SDS011;18717;48.034;11.186;2024-03-02T05:11:46;15.50;;;13.70;;
32228;SDS011;18717;48.034;11.186;2024-03-02T05:14:29;19.80;;;16.05;;
32228;SDS011;18717;48.034;11.186;2024-03-02T05:16:56;18.23;;;16.05;;
32228;SDS011;18717;48.034;11.186;2024-03-02T05:19:24;15.68;;;14.15;;
32228;SDS011;18717;48.034;11.186;2024-03-02T05:21:52;16.67;;;14.80;;
32228;SDS011;18717;48.034;11.186;2024-03-02T05:24:20;15.85;;;14.07;;
32228;SDS011;18717;48.034;11.186;2024-03-02T05:26:47;18.13;;;14.52;;
32228;SDS011;18717;48.034;11.186;2024-03-02T05:29:15;15.80;;;14.05;;
32228;SDS011;18717;48.034;11.186;2024-03-02T05:31:45;15.98;;;14.30;;
32228;SDS011;18717;48.034;11.186;2024-03-02T05:34:12;17.48;;;15.57;;
32228;SDS011;18717;48.034;11.186;2024-03-02T05:36:40;18.52;;;15.70;;
32228;SDS011;18717;48.034;11.186;2024-03-02T05:39:08;17.88;;;15.05;;
32228;SDS011;18717;48.034;11.186;2024-03-02T05:41:36;20.02;;;15.90;;
32228;SDS011;18717;48.034;11.186;2024-03-02T05:44:05;18.10;;;15.10;;
32228;SDS011;18717;48.034;11.186;2024-03-02T05:46:32;20.60;;;16.10;;
32228;SDS011;18717;48.034;11.186;2024-03-02T05:49:03;18.00;;;14.70;;
32228;SDS011;18717;48.034;11.186;2024-03-02T05:51:31;18.08;;;15.18;;
32228;SDS011;18717;48.034;11.186;2024-03-02T05:53:59;18.98;;;15.57;;
32228;SDS011;18717;48.034;11.186;2024-03-02T05:56:27;18.63;;;15.38;;
32228;SDS011;18717;48.034;11.186;2024-03-02T05:58:55;23.85;;;15.32;;
32228;SDS011;18717;48.034;11.186;2024-03-02T06:01:34;21.08;;;15.40;;
32228;SDS011;18717;48.034;11.186;2024-03-02T06:04:04;51.50;;;17.30;;
32228;SDS011;18717;48.034;11.186;2024-03-02T06:06:31;33.00;;;16.58;;
32228;SDS011;18717;48.034;11.186;2024-03-02T06:09:00;31.10;;;16.33;;
32228;SDS011;18717;48.034;11.186;2024-03-02T06:11:28;18.13;;;14.80;;
32228;SDS011;18717;48.034;11.186;2024-03-02T06:13:56;17.85;;;14.75;;
32228;SDS011;18717;48.034;11.186;2024-03-02T06:16:24;18.10;;;16.15;;
32228;SDS011;18717;48.034;11.186;2024-03-02T06:18:52;18.88;;;15.38;;
32228;SDS011;18717;48.034;11.186;2024-03-02T06:21:21;25.65;;;15.82;;
32228;SDS011;18717;48.034;11.186;2024-03-02T06:23:50;31.08;;;16.65;;
32228;SDS011;18717;48.034;11.186;2024-03-02T06:26:18;28.00;;;15.18;;
32228;SDS011;18717;48.034;11.186;2024-03-02T06:28:50;40.33;;;17.55;;
32228;SDS011;18717;48.034;11.186;2024-03-02T06:31:18;76.20;;;17.23;;
32228;SDS011;18717;48.034;11.186;2024-03-02T06:33:45;19.85;;;15.82;;
32228;SDS011;18717;48.034;11.186;2024-03-02T06:36:13;21.30;;;15.10;;
32228;SDS011;18717;48.034;11.186;2024-03-02T06:38:43;76.10;;;18.08;;
32228;SDS011;18717;48.034;11.186;2024-03-02T06:41:11;41.20;;;17.70;;
32228;SDS011;18717;48.034;11.186;2024-03-02T06:43:38;70.20;;;19.17;;
32228;SDS011;18717;48.034;11.186;2024-03-02T06:46:06;63.75;;;19.30;;
32228;SDS011;18717;48.034;11.186;2024-03-02T06:48:36;48.58;;;18.38;;
32228;SDS011;18717;48.034;11.186;2024-03-02T06:51:03;92.88;;;19.98;;
32228;SDS011;18717;48.034;11.186;2024-03-02T06:53:31;110.20;;;19.67;;
32228;SDS011;18717;48.034;11.186;2024-03-02T06:56:01;58.05;;;17.60;;
32228;SDS011;18717;48.034;11.186;2024-03-02T06:58:29;35.05;;;16.85;;
32228;SDS011;18717;48.034;11.186;2024-03-02T07:00:57;42.25;;;18.38;;
32228;SDS011;18717;48.034;11.186;2024-03-02T07:03:26;36.58;;;17.92;;
32228;SDS011;18717;48.034;11.186;2024-03-02T07:05:55;31.48;;;17.95;;
32228;SDS011;18717;48.034;11.186;2024-03-02T07:08:23;65.68;;;19.67;;
32228;SDS011;18717;48.034;11.186;2024-03-02T07:10:51;43.10;;;19.02;;
32228;SDS011;18717;48.034;11.186;2024-03-02T07:13:20;22.15;;;17.13;;
32228;SDS011;18717;48.034;11.186;2024-03-02T07:15:48;24.77;;;16.77;;
32228;SDS011;18717;48.034;11.186;2024-03-02T07:18:41;28.45;;;17.33;;
32228;SDS011;18717;48.034;11.186;2024-03-02T07:21:17;29.15;;;17.00;;
32228;SDS011;18717;48.034;11.186;2024-03-02T07:23:45;50.80;;;17.77;;
32228;SDS011;18717;48.034;11.186;2024-03-02T07:26:13;60.25;;;18.48;;
32228;SDS011;18717;48.034;11.186;2024-03-02T07:28:45;24.20;;;16.77;;
32228;SDS011;18717;48.034;11.186;2024-03-02T07:31:14;22.75;;;16.70;;
32228;SDS011;18717;48.034;11.186;2024-03-02T07:33:43;37.33;;;17.60;;
32228;SDS011;18717;48.034;11.186;2024-03-02T07:36:11;25.85;;;18.17;;
32228;SDS011;18717;48.034;11.186;2024-03-02T07:38:39;35.42;;;18.40;;
32228;SDS011;18717;48.034;11.186;2024-03-02T07:41:07;38.80;;;19.25;;
32228;SDS011;18717;48.034;11.186;2024-03-02T07:43:35;32.72;;;17.63;;
32228;SDS011;18717;48.034;11.186;2024-03-02T07:46:04;24.75;;;18.25;;
32228;SDS011;18717;48.034;11.186;2024-03-02T07:48:32;23.77;;;18.25;;
32228;SDS011;18717;48.034;11.186;2024-03-02T07:51:00;25.67;;;18.17;;
32228;SDS011;18717;48.034;11.186;2024-03-02T07:53:28;27.23;;;18.65;;
32228;SDS011;18717;48.034;11.186;2024-03-02T07:55:56;21.83;;;17.13;;
32228;SDS011;18717;48.034;11.186;2024-03-02T07:58:28;24.85;;;18.02;;
32228;SDS011;18717;48.034;11.186;2024-03-02T08:00:57;20.55;;;15.63;;
32228;SDS011;18717;48.034;11.186;2024-03-02T08:03:29;21.83;;;17.42;;
32228;SDS011;18717;48.034;11.186;2024-03-02T08:05:58;19.88;;;16.33;;
32228;SDS011;18717;48.034;11.186;2024-03-02T08:08:26;21.52;;;17.02;;
32228;SDS011;18717;48.034;11.186;2024-03-02T08:13:43;23.40;;;18.58;;
32228;SDS011;18717;48.034;11.186;2024-03-02T08:16:10;20.27;;;17.38;;
32228;SDS011;18717;48.034;11.186;2024-03-02T08:18:39;21.27;;;18.42;;
32228;SDS011;18717;48.034;11.186;2024-03-02T08:21:07;22.98;;;18.13;;
32228;SDS011;18717;48.034;11.186;2024-03-02T08:23:35;23.45;;;18.33;;
32228;SDS011;18717;48.034;11.186;2024-03-02T08:26:06;19.83;;;16.88;;
32228;SDS011;18717;48.034;11.186;2024-03-02T08:28:34;21.88;;;17.20;;
32228;SDS011;18717;48.034;11.186;2024-03-02T08:31:03;19.40;;;15.98;;
32228;SDS011;18717;48.034;11.186;2024-03-02T08:33:31;19.95;;;17.83;;
32228;SDS011;18717;48.034;11.186;2024-03-02T08:36:02;23.48;;;17.05;;
32228;SDS011;18717;48.034;11.186;2024-03-02T08:38:31;18.95;;;16.80;;
32228;SDS011;18717;48.034;11.186;2024-03-02T08:40:58;19.50;;;17.45;;
32228;SDS011;18717;48.034;11.186;2024-03-02T08:43:26;19.50;;;17.42;;
32228;SDS011;18717;48.034;11.186;2024-03-02T08:45:54;21.40;;;18.25;;
32228;SDS011;18717;48.034;11.186;2024-03-02T08:48:22;20.23;;;16.70;;
32228;SDS011;18717;48.034;11.186;2024-03-02T08:50:50;17.85;;;15.63;;
32228;SDS011;18717;48.034;11.186;2024-03-02T08:53:19;21.77;;;18.13;;
32228;SDS011;18717;48.034;11.186;2024-03-02T08:55:46;19.75;;;17.75;;
32228;SDS011;18717;48.034;11.186;2024-03-02T08:58:14;19.52;;;17.45;;
32228;SDS011;18717;48.034;11.186;2024-03-02T09:00:42;20.05;;;17.40;;
32228;SDS011;18717;48.034;11.186;2024-03-02T09:03:10;19.17;;;16.85;;
32228;SDS011;18717;48.034;11.186;2024-03-02T09:05:38;19.42;;;17.50;;
32228;SDS011;18717;48.034;11.186;2024-03-02T09:08:06;17.83;;;16.08;;
32228;SDS011;18717;48.034;11.186;2024-03-02T09:10:35;17.05;;;15.25;;
32228;SDS011;18717;48.034;11.186;2024-03-02T09:13:04;18.08;;;16.25;;
32228;SDS011;18717;48.034;11.186;2024-03-02T09:15:32;16.15;;;14.63;;
32228;SDS011;18717;48.034;11.186;2024-03-02T09:18:04;19.38;;;17.33;;
32228;SDS011;18717;48.034;11.186;2024-03-02T09:20:33;17.02;;;15.30;;
32228;SDS011;18717;48.034;11.186;2024-03-02T09:23:01;16.65;;;15.13;;
32228;SDS011;18717;48.034;11.186;2024-03-02T09:25:28;15.98;;;14.48;;
32228;SDS011;18717;48.034;11.186;2024-03-02T09:27:57;16.70;;;15.20;;
32228;SDS011;18717;48.034;11.186;2024-03-02T09:30:25;16.38;;;14.88;;
32228;SDS011;18717;48.034;11.186;2024-03-02T09:32:53;14.75;;;13.45;;
32228;SDS011;18717;48.034;11.186;2024-03-02T09:35:41;14.15;;;12.95;;
32228;SDS011;18717;48.034;11.186;2024-03-02T09:38:08;15.32;;;13.88;;
32228;SDS011;18717;48.034;11.186;2024-03-02T09:40:36;16.02;;;14.43;;
32228;SDS011;18717;48.034;11.186;2024-03-02T09:43:05;15.00;;;13.80;;
32228;SDS011;18717;48.034;11.186;2024-03-02T09:45:33;14.25;;;12.95;;
32228;SDS011;18717;48.034;11.186;2024-03-02T09:48:01;16.13;;;14.52;;
32228;SDS011;18717;48.034;11.186;2024-03-02T09:50:29;15.27;;;13.88;;
32228;SDS011;18717;48.034;11.186;2024-03-02T09:52:57;13.00;;;11.98;;
32228;SDS011;18717;48.034;11.186;2024-03-02T09:55:26;12.75;;;11.63;;
32228;SDS011;18717;48.034;11.186;2024-03-02T09:57:54;12.90;;;11.75;;
32228;SDS011;18717;48.034;11.186;2024-03-02T10:00:23;13.10;;;11.93;;
32228;SDS011;18717;48.034;11.186;2024-03-02T10:02:51;13.15;;;12.10;;
32228;SDS011;18717;48.034;11.186;2024-03-02T10:05:25;12.05;;;11.05;;
32228;SDS011;18717;48.034;11.186;2024-03-02T10:07:58;13.30;;;12.20;;
32228;SDS011;18717;48.034;11.186;2024-03-02T10:10:34;12.90;;;11.65;;
32228;SDS011;18717;48.034;11.186;2024-03-02T10:13:06;12.60;;;11.63;;
32228;SDS011;18717;48.034;11.186;2024-03-02T10:15:36;11.73;;;10.90;;
32228;SDS011;18717;48.034;11.186;2024-03-02T10:20:36;11.20;;;10.40;;
32228;SDS011;18717;48.034;11.186;2024-03-02T10:23:10;10.48;;;9.82;;
32228;SDS011;18717;48.034;11.186;2024-03-02T10:25:38;10.23;;;9.52;;
32228;SDS011;18717;48.034;11.186;2024-03-02T10:28:20;10.65;;;9.77;;
32228;SDS011;18717;48.034;11.186;2024-03-02T10:30:49;10.68;;;9.95;;
32228;SDS011;18717;48.034;11.186;2024-03-02T10:33:18;11.07;;;10.38;;
32228;SDS011;18717;48.034;11.186;2024-03-02T10:35:47;10.68;;;10.07;;
32228;SDS011;18717;48.034;11.186;2024-03-02T10:38:15;11.38;;;10.57;;
32228;SDS011;18717;48.034;11.186;2024-03-02T10:40:43;10.65;;;10.02;;
32228;SDS011;18717;48.034;11.186;2024-03-02T10:43:14;12.10;;;11.10;;
32228;SDS011;18717;48.034;11.186;2024-03-02T10:45:42;11.90;;;11.07;;
32228;SDS011;18717;48.034;11.186;2024-03-02T10:48:11;11.43;;;10.65;;
32228;SDS011;18717;48.034;11.186;2024-03-02T10:50:39;12.82;;;11.65;;
32228;SDS011;18717;48.034;11.186;2024-03-02T10:53:07;13.40;;;12.27;;
32228;SDS011;18717;48.034;11.186;2024-03-02T10:55:34;13.32;;;12.13;;
32228;SDS011;18717;48.034;11.186;2024-03-02T10:58:03;13.73;;;12.60;;
32228;SDS011;18717;48.034;11.186;2024-03-02T11:00:34;14.07;;;12.75;;
32228;SDS011;18717;48.034;11.186;2024-03-02T11:05:38;13.07;;;11.88;;
32228;SDS011;18717;48.034;11.186;2024-03-02T11:08:07;14.20;;;12.90;;
32228;SDS011;18717;48.034;11.186;2024-03-02T11:10:36;13.77;;;12.68;;
32228;SDS011;18717;48.034;11.186;2024-03-02T11:13:05;14.23;;;12.93;;
32228;SDS011;18717;48.034;11.186;2024-03-02T11:15:36;13.68;;;12.57;;
32228;SDS011;18717;48.034;11.186;2024-03-02T11:18:05;14.52;;;13.15;;
32228;SDS011;18717;48.034;11.186;2024-03-02T11:20:37;14.23;;;12.95;;
32228;SDS011;18717;48.034;11.186;2024-03-02T11:23:06;14.23;;;13.05;;
32228;SDS011;18717;48.034;11.186;2024-03-02T11:25:35;15.27;;;13.80;;
32228;SDS011;18717;48.034;11.186;2024-03-02T11:28:04;14.93;;;13.43;;
32228;SDS011;18717;48.034;11.186;2024-03-02T11:33:24;15.05;;;13.65;;
32228;SDS011;18717;48.034;11.186;2024-03-02T11:35:55;16.70;;;14.30;;
32228;SDS011;18717;48.034;11.186;2024-03-02T11:38:24;15.60;;;14.27;;
32228;SDS011;18717;48.034;11.186;2024-03-02T11:40:55;16.15;;;14.65;;
32228;SDS011;18717;48.034;11.186;2024-03-02T11:43:23;19.25;;;14.63;;
32228;SDS011;18717;48.034;11.186;2024-03-02T11:45:56;15.85;;;14.45;;
32228;SDS011;18717;48.034;11.186;2024-03-02T11:48:24;16.77;;;15.32;;
32228;SDS011;18717;48.034;11.186;2024-03-02T11:50:52;16.25;;;14.48;;
32228;SDS011;18717;48.034;11.186;2024-03-02T11:53:22;13.75;;;12.65;;
32228;SDS011;18717;48.034;11.186;2024-03-02T11:55:49;13.55;;;12.40;;
32228;SDS011;18717;48.034;11.186;2024-03-02T11:58:17;13.02;;;12.13;;
32228;SDS011;18717;48.034;11.186;2024-03-02T12:00:47;12.77;;;11.88;;
32228;SDS011;18717;48.034;11.186;2024-03-02T12:03:15;12.93;;;12.13;;
32228;SDS011;18717;48.034;11.186;2024-03-02T12:05:43;12.45;;;11.57;;
32228;SDS011;18717;48.034;11.186;2024-03-02T12:08:11;11.88;;;11.18;;
32228;SDS011;18717;48.034;11.186;2024-03-02T12:10:41;11.88;;;11.18;;
32228;SDS011;18717;48.034;11.186;2024-03-02T12:13:10;13.00;;;12.20;;
32228;SDS011;18717;48.034;11.186;2024-03-02T12:15:38;12.18;;;11.32;;
32228;SDS011;18717;48.034;11.186;2024-03-02T12:18:07;12.02;;;11.25;;
32228;SDS011;18717;48.034;11.186;2024-03-02T12:20:34;12.35;;;11.55;;
32228;SDS011;18717;48.034;11.186;2024-03-02T12:23:02;12.13;;;11.23;;
32228;SDS011;18717;48.034;11.186;2024-03-02T12:25:32;11.85;;;11.10;;
32228;SDS011;18717;48.034;11.186;2024-03-02T12:28:01;11.38;;;10.75;;
32228;SDS011;18717;48.034;11.186;2024-03-02T12:30:30;12.45;;;11.52;;
32228;SDS011;18717;48.034;11.186;2024-03-02T12:32:58;12.05;;;11.45;;
32228;SDS011;18717;48.034;11.186;2024-03-02T12:35:26;12.65;;;11.65;;
32228;SDS011;18717;48.034;11.186;2024-03-02T12:37:54;11.80;;;11.05;;
32228;SDS011;18717;48.034;11.186;2024-03-02T12:40:22;12.88;;;11.75;;
32228;SDS011;18717;48.034;11.186;2024-03-02T12:42:50;11.82;;;11.10;;
32228;SDS011;18717;48.034;11.186;2024-03-02T12:45:20;12.63;;;11.73;;
32228;SDS011;18717;48.034;11.186;2024-03-02T12:47:51;12.63;;;11.73;;
32228;SDS011;18717;48.034;11.186;2024-03-02T12:50:22;11.75;;;11.05;;
32228;SDS011;18717;48.034;11.186;2024-03-02T12:52:58;12.85;;;11.73;;
32228;SDS011;18717;48.034;11.186;2024-03-02T12:55:26;12.70;;;11.90;;
32228;SDS011;18717;48.034;11.186;2024-03-02T12:57:55;12.00;;;11.10;;
32228;SDS011;18717;48.034;11.186;2024-03-02T13:00:25;14.07;;;12.77;;
32228;SDS011;18717;48.034;11.186;2024-03-02T13:02:53;12.80;;;11.80;;
32228;SDS011;18717;48.034;11.186;2024-03-02T13:05:29;13.60;;;12.80;;
32228;SDS011;18717;48.034;11.186;2024-03-02T13:07:57;13.35;;;12.45;;
32228;SDS011;18717;48.034;11.186;2024-03-02T13:10:25;12.63;;;11.70;;
32228;SDS011;18717;48.034;11.186;2024-03-02T13:12:53;14.27;;;13.05;;
32228;SDS011;18717;48.034;11.186;2024-03-02T13:15:21;13.77;;;12.68;;
32228;SDS011;18717;48.034;11.186;2024-03-02T13:17:50;13.55;;;12.30;;
32228;SDS011;18717;48.034;11.186;2024-03-02T13:20:18;13.32;;;12.23;;
32228;SDS011;18717;48.034;11.186;2024-03-02T13:22:49;13.68;;;12.70;;
32228;SDS011;18717;48.034;11.186;2024-03-02T13:25:16;14.30;;;13.05;;
32228;SDS011;18717;48.034;11.186;2024-03-02T13:27:44;13.88;;;12.82;;
32228;SDS011;18717;48.034;11.186;2024-03-02T13:30:12;13.48;;;12.32;;
32228;SDS011;18717;48.034;11.186;2024-03-02T13:32:40;14.27;;;13.07;;
32228;SDS011;18717;48.034;11.186;2024-03-02T13:35:09;15.23;;;13.75;;
32228;SDS011;18717;48.034;11.186;2024-03-02T13:37:37;15.05;;;13.77;;
32228;SDS011;18717;48.034;11.186;2024-03-02T13:40:07;14.90;;;13.57;;
32228;SDS011;18717;48.034;11.186;2024-03-02T13:42:44;14.95;;;13.60;;
32228;SDS011;18717;48.034;11.186;2024-03-02T13:45:12;14.85;;;13.50;;
32228;SDS011;18717;48.034;11.186;2024-03-02T13:47:40;15.80;;;14.50;;
32228;SDS011;18717;48.034;11.186;2024-03-02T13:50:10;15.38;;;13.75;;
32228;SDS011;18717;48.034;11.186;2024-03-02T13:52:38;14.35;;;13.25;;
32228;SDS011;18717;48.034;11.186;2024-03-02T13:55:06;14.13;;;13.15;;
32228;SDS011;18717;48.034;11.186;2024-03-02T13:57:34;13.65;;;12.65;;
32228;SDS011;18717;48.034;11.186;2024-03-02T14:00:02;14.65;;;13.00;;
32228;SDS011;18717;48.034;11.186;2024-03-02T14:02:36;14.40;;;13.40;;
32228;SDS011;18717;48.034;11.186;2024-03-02T14:05:04;14.77;;;13.32;;
32228;SDS011;18717;48.034;11.186;2024-03-02T14:07:35;14.65;;;13.45;;
32228;SDS011;18717;48.034;11.186;2024-03-02T14:10:03;14.98;;;13.90;;
32228;SDS011;18717;48.034;11.186;2024-03-02T14:12:32;15.77;;;14.27;;
32228;SDS011;18717;48.034;11.186;2024-03-02T14:14:59;14.15;;;13.05;;
32228;SDS011;18717;48.034;11.186;2024-03-02T14:17:29;13.90;;;12.90;;
32228;SDS011;18717;48.034;11.186;2024-03-02T14:19:58;14.02;;;12.80;;
32228;SDS011;18717;48.034;11.186;2024-03-02T14:22:26;15.88;;;14.25;;
32228;SDS011;18717;48.034;11.186;2024-03-02T14:24:55;15.23;;;14.02;;
32228;SDS011;18717;48.034;11.186;2024-03-02T14:27:23;14.95;;;13.65;;
32228;SDS011;18717;48.034;11.186;2024-03-02T14:30:12;16.30;;;15.05;;
32228;SDS011;18717;48.034;11.186;2024-03-02T14:32:40;16.80;;;15.50;;